Time;durP1;ratioP1;P1;durP2;ratioP2;P2;SDS_P1;SDS_P2;PMS_P1;PMS_P2;Temp;Humidity;BMP_temperature;BMP_pressure;BME280_temperature;BME280_humidity;BME280_pressure;Samples;Min_cycle;Max_cycle;Signal;HPM_P1;HPM_P2
2022/10/31 00:01:21;;;;;;;36.93;33.33;;;14.30;99.90;;;;;;4918858;29;20475;-79
2022/10/31 00:03:49;;;;;;;39.40;35.20;;;14.30;99.90;;;;;;4918094;29;20464;-79
2022/10/31 00:06:18;;;;;;;38.60;34.50;;;14.30;99.90;;;;;;4918238;29;20445;-79
2022/10/31 00:08:46;;;;;;;37.70;33.60;;;14.20;99.90;;;;;;4919392;29;20452;-78
2022/10/31 00:11:15;;;;;;;37.80;33.17;;;14.20;99.90;;;;;;4919674;29;20472;-79
2022/10/31 00:13:43;;;;;;;35.37;31.77;;;14.20;99.90;;;;;;4917943;29;20457;-78
2022/10/31 00:16:18;;;;;;;39.50;35.60;;;14.20;99.90;;;;;;4919678;29;20452;-79
2022/10/31 00:18:49;;;;;;;40.87;36.60;;;14.20;99.90;;;;;;4918261;29;20474;-79
2022/10/31 00:21:18;;;;;;;37.53;33.70;;;14.20;99.90;;;;;;4917795;29;20508;-79
2022/10/31 00:23:46;;;;;;;39.93;35.73;;;14.20;99.90;;;;;;4918002;29;20460;-79
2022/10/31 00:26:14;;;;;;;42.80;38.30;;;14.20;99.90;;;;;;4918289;29;20974;-79
2022/10/31 00:28:43;;;;;;;37.33;33.50;;;14.20;99.90;;;;;;4917849;29;20507;-79
2022/10/31 00:31:13;;;;;;;39.57;35.47;;;14.10;99.90;;;;;;4917471;29;20472;-79
2022/10/31 00:33:43;;;;;;;38.80;34.70;;;14.10;99.90;;;;;;4918911;29;20496;-79
2022/10/31 00:36:13;;;;;;;38.17;34.17;;;14.10;99.90;;;;;;4917942;29;20458;-78
2022/10/31 00:38:42;;;;;;;39.63;33.70;;;14.10;99.90;;;;;;4917454;29;20544;-79
2022/10/31 00:41:11;;;;;;;38.87;34.77;;;14.10;99.90;;;;;;4918732;29;20456;-79
2022/10/31 00:43:41;;;;;;;38.60;34.77;;;14.10;99.90;;;;;;4917469;29;20455;-79
2022/10/31 00:46:09;;;;;;;38.50;34.40;;;14.00;99.90;;;;;;4918546;29;20456;-79
2022/10/31 00:48:37;;;;;;;43.20;36.17;;;14.00;99.90;;;;;;4917297;29;20452;-79
2022/10/31 00:51:08;;;;;;;41.37;36.73;;;14.00;99.90;;;;;;4918411;29;20488;-79
2022/10/31 00:53:36;;;;;;;42.13;36.50;;;14.00;99.90;;;;;;4917225;29;20460;-78
2022/10/31 00:56:05;;;;;;;43.80;35.80;;;13.90;99.90;;;;;;4917053;29;20519;-79
2022/10/31 00:58:34;;;;;;;40.40;36.30;;;14.00;99.90;;;;;;4917104;29;20586;-79
2022/10/31 01:01:02;;;;;;;39.30;34.67;;;14.00;99.90;;;;;;4917364;29;20480;-79
2022/10/31 01:03:33;;;;;;;39.07;34.97;;;14.00;99.90;;;;;;4917183;29;20448;-79
2022/10/31 01:06:03;;;;;;;39.30;34.97;;;14.00;99.90;;;;;;4918417;29;20437;-79
2022/10/31 01:08:35;;;;;;;37.40;33.40;;;14.00;99.90;;;;;;4917095;29;20798;-79
2022/10/31 01:11:07;;;;;;;36.93;33.03;;;13.90;99.90;;;;;;4916884;29;20543;-78
2022/10/31 01:13:36;;;;;;;36.43;32.43;;;13.90;99.90;;;;;;4917796;29;20455;-79
2022/10/31 01:16:05;;;;;;;38.50;34.13;;;13.90;99.90;;;;;;4918132;29;20459;-78
2022/10/31 01:18:34;;;;;;;39.60;35.50;;;13.90;99.90;;;;;;4918277;29;20447;-79
2022/10/31 01:21:05;;;;;;;41.40;34.40;;;13.90;99.90;;;;;;4917820;29;20475;-79
2022/10/31 01:23:36;;;;;;;38.00;33.83;;;13.90;99.90;;;;;;4917386;29;20455;-79
2022/10/31 01:26:08;;;;;;;35.70;32.10;;;13.80;99.90;;;;;;4916727;29;20539;-79
2022/10/31 01:28:37;;;;;;;37.40;33.30;;;13.80;99.90;;;;;;4916768;29;20471;-79
2022/10/31 01:31:09;;;;;;;36.23;32.43;;;13.80;99.90;;;;;;4916387;29;20494;-79
2022/10/31 01:33:37;;;;;;;36.60;32.73;;;13.80;99.90;;;;;;4917087;29;20996;-79
2022/10/31 01:36:14;;;;;;;34.00;30.37;;;13.80;99.90;;;;;;4917804;29;20562;-79
2022/10/31 01:38:44;;;;;;;35.50;31.77;;;13.80;99.90;;;;;;4916343;29;20444;-78
2022/10/31 01:41:14;;;;;;;35.17;31.60;;;13.70;99.90;;;;;;4916235;29;20468;-79
2022/10/31 01:43:48;;;;;;;39.07;33.63;;;13.70;99.90;;;;;;4916246;29;20576;-79
2022/10/31 01:46:19;;;;;;;36.03;32.17;;;13.70;99.90;;;;;;4916301;29;20448;-79
2022/10/31 01:48:48;;;;;;;35.13;31.67;;;13.70;99.90;;;;;;4916213;29;20516;-79
2022/10/31 01:51:20;;;;;;;35.40;31.60;;;13.70;99.90;;;;;;4915931;29;20575;-79
2022/10/31 01:53:52;;;;;;;36.40;32.30;;;13.60;99.90;;;;;;4916158;29;20467;-79
2022/10/31 01:56:21;;;;;;;36.60;32.33;;;13.60;99.90;;;;;;4917373;29;20456;-79
2022/10/31 01:58:52;;;;;;;37.30;33.60;;;13.60;99.90;;;;;;4915965;29;21009;-79
2022/10/31 02:01:20;;;;;;;38.73;34.77;;;13.50;99.90;;;;;;4916012;29;20469;-78
2022/10/31 02:03:49;;;;;;;39.50;35.40;;;13.50;99.90;;;;;;4915991;29;20456;-79
2022/10/31 02:06:28;;;;;;;38.93;33.97;;;13.50;99.90;;;;;;4915912;29;20456;-79
2022/10/31 02:08:58;;;;;;;35.50;31.80;;;13.50;99.90;;;;;;4916366;29;20493;-79
2022/10/31 02:11:28;;;;;;;37.13;33.07;;;13.50;99.90;;;;;;4915678;29;20492;-79
2022/10/31 02:13:57;;;;;;;35.97;32.40;;;13.40;99.90;;;;;;4916515;29;20806;-79
2022/10/31 02:16:25;;;;;;;40.00;35.83;;;13.40;99.90;;;;;;4915622;29;20946;-79
2022/10/31 02:18:54;;;;;;;39.33;35.03;;;13.40;99.90;;;;;;4915543;29;20547;-79
2022/10/31 02:21:30;;;;;;;39.60;35.60;;;13.40;99.90;;;;;;4915683;29;20476;-79
2022/10/31 02:24:26;;;;;;;39.27;35.13;;;13.40;99.90;;;;;;4915731;29;20447;-79
2022/10/31 02:27:03;;;;;;;37.20;33.20;;;13.30;99.90;;;;;;4915987;29;20460;-79
2022/10/31 02:30:06;;;;;;;36.43;32.87;;;13.30;99.90;;;;;;4916080;29;20938;-79
2022/10/31 02:32:49;;;;;;;38.27;34.57;;;13.30;99.90;;;;;;4915477;29;20479;-79
2022/10/31 02:35:29;;;;;;;37.97;34.00;;;13.30;99.90;;;;;;4915565;29;20444;-79
2022/10/31 02:38:09;;;;;;;38.60;34.13;;;13.30;99.90;;;;;;4915503;29;20445;-79
2022/10/31 02:40:49;;;;;;;37.77;33.97;;;13.20;99.90;;;;;;4915523;29;20496;-79
2022/10/31 02:43:55;;;;;;;39.93;35.80;;;13.20;99.90;;;;;;4916329;29;20449;-77
2022/10/31 02:46:30;;;;;;;36.87;32.43;;;13.20;99.90;;;;;;4915436;29;20988;-79
2022/10/31 02:49:06;;;;;;;37.47;33.67;;;13.10;99.90;;;;;;4915672;29;20492;-79
2022/10/31 02:51:36;;;;;;;37.37;33.70;;;13.10;99.90;;;;;;4915220;29;20516;-79
2022/10/31 02:54:04;;;;;;;40.23;35.97;;;13.10;99.90;;;;;;4915283;29;20559;-79
2022/10/31 02:56:33;;;;;;;35.57;31.90;;;13.10;99.90;;;;;;4915222;29;20499;-79
2022/10/31 02:59:04;;;;;;;38.33;34.43;;;13.00;99.90;;;;;;4915441;29;20448;-78
2022/10/31 03:01:48;;;;;;;37.03;33.33;;;13.00;99.90;;;;;;4915213;29;20472;-79
2022/10/31 03:04:50;;;;;;;34.60;31.20;;;13.00;99.90;;;;;;4915258;29;20452;-79
2022/10/31 03:07:26;;;;;;;35.50;32.10;;;13.00;99.90;;;;;;4916484;29;20424;-79
2022/10/31 03:10:03;;;;;;;39.47;35.50;;;12.90;99.90;;;;;;4916738;29;20438;-79
2022/10/31 03:12:39;;;;;;;37.97;34.23;;;12.90;99.90;;;;;;4915658;29;20487;-79
2022/10/31 03:15:20;;;;;;;37.27;33.43;;;12.90;99.90;;;;;;4915273;29;20455;-79
2022/10/31 03:17:56;;;;;;;35.27;31.87;;;12.90;99.90;;;;;;4916461;29;20520;-79
2022/10/31 03:20:34;;;;;;;39.70;35.80;;;12.90;99.90;;;;;;4915378;29;20440;-79
2022/10/31 03:23:04;;;;;;;37.23;33.63;;;12.80;99.90;;;;;;4915201;29;20450;-79
2022/10/31 03:25:35;;;;;;;35.50;31.70;;;12.80;99.90;;;;;;4915157;29;20496;-79
2022/10/31 03:28:05;;;;;;;36.10;32.20;;;12.80;99.90;;;;;;4915310;29;20447;-78
2022/10/31 03:30:36;;;;;;;36.83;32.93;;;12.80;99.90;;;;;;4917715;29;20510;-79
2022/10/31 03:33:08;;;;;;;36.83;33.00;;;12.80;99.90;;;;;;4918852;29;20868;-79
2022/10/31 03:35:42;;;;;;;35.63;32.20;;;12.70;99.90;;;;;;4918958;29;20464;-79
2022/10/31 03:38:11;;;;;;;36.70;32.97;;;12.70;99.90;;;;;;4918610;29;20440;-79
2022/10/31 03:40:44;;;;;;;35.57;32.27;;;12.70;99.90;;;;;;4918808;29;20942;-78
2022/10/31 03:43:17;;;;;;;36.40;32.77;;;12.70;99.90;;;;;;4918730;29;20457;-79
2022/10/31 03:45:48;;;;;;;37.13;33.33;;;12.70;99.90;;;;;;4918485;29;20452;-79
2022/10/31 03:48:18;;;;;;;35.80;32.20;;;12.60;99.90;;;;;;4918506;29;20532;-79
2022/10/31 03:50:54;;;;;;;36.70;33.30;;;12.60;99.90;;;;;;4918221;29;20491;-79
2022/10/31 03:53:27;;;;;;;36.27;32.70;;;12.60;99.90;;;;;;4918394;29;20813;-79
2022/10/31 03:56:02;;;;;;;38.53;34.73;;;12.60;99.90;;;;;;4918273;29;20464;-79
2022/10/31 03:58:39;;;;;;;40.57;36.37;;;12.60;99.90;;;;;;4919004;29;20456;-79
2022/10/31 04:01:12;;;;;;;48.13;40.10;;;12.60;99.90;;;;;;4918132;29;20567;-78
2022/10/31 04:03:42;;;;;;;47.10;38.03;;;12.60;99.90;;;;;;4918186;29;20448;-79
2022/10/31 04:06:15;;;;;;;42.83;38.20;;;12.60;99.90;;;;;;4918249;29;20508;-79
2022/10/31 04:08:50;;;;;;;45.10;39.73;;;12.60;99.90;;;;;;4919831;29;20428;-79
2022/10/31 04:11:23;;;;;;;44.70;38.23;;;12.60;99.90;;;;;;4917750;29;20479;-79
2022/10/31 04:14:12;;;;;;;49.90;43.97;;;12.60;99.90;;;;;;4919057;29;20452;-79
2022/10/31 04:16:43;;;;;;;46.00;39.93;;;12.60;99.90;;;;;;4917886;29;20449;-78
2022/10/31 04:19:13;;;;;;;46.00;41.13;;;12.60;99.90;;;;;;4918317;29;21001;-79
2022/10/31 04:21:44;;;;;;;54.27;44.27;;;12.60;99.90;;;;;;4917662;29;20567;-79
2022/10/31 04:24:12;;;;;;;47.73;42.07;;;12.60;99.90;;;;;;4917872;29;20958;-79
2022/10/31 04:26:41;;;;;;;62.80;43.77;;;12.60;99.90;;;;;;4917763;29;20452;-77
2022/10/31 04:29:09;;;;;;;61.40;41.90;;;12.60;99.90;;;;;;4918803;29;20866;-78
2022/10/31 04:31:38;;;;;;;70.70;41.47;;;12.60;99.90;;;;;;4918857;29;20627;-79
2022/10/31 04:34:08;;;;;;;54.00;42.30;;;12.60;99.90;;;;;;4917674;29;20555;-79
2022/10/31 04:36:36;;;;;;;48.00;42.17;;;12.70;99.90;;;;;;4917496;29;20571;-79
2022/10/31 04:39:06;;;;;;;58.63;42.53;;;12.70;99.90;;;;;;4917497;29;20444;-78
2022/10/31 04:41:52;;;;;;;45.47;40.83;;;12.70;99.90;;;;;;4917146;29;20483;-79
2022/10/31 04:44:20;;;;;;;60.37;42.40;;;12.70;99.90;;;;;;4917585;29;20970;-79
2022/10/31 04:46:51;;;;;;;51.03;41.50;;;12.70;99.90;;;;;;4918214;29;20453;-79
2022/10/31 04:49:20;;;;;;;52.00;39.73;;;12.60;99.90;;;;;;4917594;29;20452;-79
2022/10/31 04:51:48;;;;;;;50.00;41.60;;;12.60;99.90;;;;;;4917240;29;20528;-79
2022/10/31 04:54:18;;;;;;;46.23;41.10;;;12.60;99.90;;;;;;4917612;29;20448;-78
2022/10/31 04:57:05;;;;;;;35.30;31.43;;;12.60;99.90;;;;;;4919476;29;20428;-79
2022/10/31 04:59:33;;;;;;;45.30;40.60;;;12.60;99.90;;;;;;4917189;29;20559;-79
2022/10/31 05:02:02;;;;;;;45.87;41.03;;;12.60;99.90;;;;;;4917148;29;20511;-79
2022/10/31 05:04:43;;;;;;;46.00;41.40;;;12.60;99.90;;;;;;4917218;29;20453;-78
2022/10/31 05:07:13;;;;;;;44.87;40.67;;;12.60;99.90;;;;;;4917495;29;20954;-78
2022/10/31 05:09:42;;;;;;;44.50;40.23;;;12.60;99.90;;;;;;4917215;29;20448;-78
2022/10/31 05:12:13;;;;;;;47.70;43.10;;;12.60;99.90;;;;;;4916797;29;20487;-79
2022/10/31 05:15:21;;;;;;;46.10;41.17;;;12.60;99.90;;;;;;4954164;29;20458;-79
2022/10/31 05:18:12;;;;;;;61.87;42.60;;;12.60;99.90;;;;;;4954034;29;20451;-78
2022/10/31 05:21:00;;;;;;;60.37;41.00;;;12.60;99.90;;;;;;4926334;29;20631;-79
2022/10/31 05:23:48;;;;;;;42.73;38.77;;;12.60;99.90;;;;;;4918026;29;20477;-78
2022/10/31 05:26:19;;;;;;;50.90;41.70;;;12.60;99.90;;;;;;4916797;29;20464;-78
2022/10/31 05:28:48;;;;;;;44.93;40.70;;;12.60;99.90;;;;;;4916690;29;20437;-79
2022/10/31 05:31:16;;;;;;;44.53;40.00;;;12.60;99.90;;;;;;4916565;29;20476;-79
2022/10/31 05:33:44;;;;;;;63.70;42.20;;;12.60;99.90;;;;;;4916596;29;20476;-79
2022/10/31 05:36:18;;;;;;;46.63;40.70;;;12.50;99.90;;;;;;4918420;29;20428;-79
2022/10/31 05:39:00;;;;;;;43.67;39.47;;;12.60;99.90;;;;;;4916489;29;20451;-79
2022/10/31 05:41:37;;;;;;;45.17;39.30;;;12.50;99.90;;;;;;4916999;29;20479;-79
2022/10/31 05:44:12;;;;;;;43.57;39.40;;;12.50;99.90;;;;;;4916329;29;20841;-78
2022/10/31 05:47:00;;;;;;;44.47;39.50;;;12.50;99.90;;;;;;4920100;29;20463;-79
2022/10/31 05:49:37;;;;;;;41.67;37.33;;;12.50;99.90;;;;;;4918400;29;20436;-79
2022/10/31 05:52:24;;;;;;;42.67;38.50;;;12.50;99.90;;;;;;4916875;29;20502;-78
2022/10/31 05:55:01;;;;;;;43.53;37.60;;;12.50;99.90;;;;;;4916858;29;20456;-79
2022/10/31 05:57:33;;;;;;;40.30;36.53;;;12.50;99.90;;;;;;4916935;29;20456;-79
2022/10/31 06:00:02;;;;;;;41.10;36.70;;;12.50;99.90;;;;;;4916097;29;20507;-78
2022/10/31 06:02:35;;;;;;;38.30;34.70;;;12.40;99.90;;;;;;4917334;29;20468;-78
2022/10/31 06:05:25;;;;;;;40.80;37.10;;;12.40;99.90;;;;;;4916034;29;20539;-79
2022/10/31 06:07:53;;;;;;;40.23;36.80;;;12.40;99.90;;;;;;4915992;29;20547;-78
2022/10/31 06:10:23;;;;;;;39.30;35.80;;;12.40;99.90;;;;;;4916034;29;20872;-78
2022/10/31 06:12:57;;;;;;;38.97;35.40;;;12.40;99.90;;;;;;4915929;29;21012;-78
2022/10/31 06:16:03;;;;;;;35.97;32.80;;;12.40;99.90;;;;;;4921055;29;20453;-79
2022/10/31 06:18:36;;;;;;;36.83;33.53;;;12.40;99.90;;;;;;4916203;29;20970;-78
2022/10/31 06:21:05;;;;;;;35.63;32.67;;;12.30;99.90;;;;;;4915681;29;20464;-79
2022/10/31 06:23:33;;;;;;;37.53;34.33;;;12.30;99.90;;;;;;4917021;29;20531;-78
2022/10/31 06:26:30;;;;;;;37.07;33.80;;;12.30;99.90;;;;;;4920380;29;20456;-79
2022/10/31 06:29:00;;;;;;;34.67;31.97;;;12.30;99.90;;;;;;4915922;29;21053;-78
2022/10/31 06:31:55;;;;;;;36.13;33.13;;;12.30;99.90;;;;;;4915905;29;20574;-79
2022/10/31 06:34:23;;;;;;;34.50;31.70;;;12.20;99.90;;;;;;4915745;29;20444;-78
2022/10/31 06:36:51;;;;;;;35.10;32.20;;;12.20;99.90;;;;;;4915600;29;21020;-78
2022/10/31 06:39:24;;;;;;;36.97;33.37;;;12.20;99.90;;;;;;4917307;29;20488;-78
2022/10/31 06:41:54;;;;;;;36.70;33.50;;;12.20;99.90;;;;;;4915720;29;20515;-78
2022/10/31 06:44:25;;;;;;;38.47;34.70;;;12.20;99.90;;;;;;4916053;29;20539;-79
2022/10/31 06:47:13;;;;;;;38.37;34.57;;;12.20;99.90;;;;;;4916487;29;20456;-79
2022/10/31 06:49:57;;;;;;;43.53;39.33;;;12.20;99.90;;;;;;4916311;29;20455;-78
2022/10/31 06:52:27;;;;;;;39.00;34.83;;;12.10;99.90;;;;;;4915373;29;20639;-79
2022/10/31 06:54:56;;;;;;;36.47;33.33;;;12.10;99.90;;;;;;4915269;29;20520;-78
2022/10/31 06:57:25;;;;;;;40.70;37.10;;;12.10;99.90;;;;;;4915481;29;20452;-78
2022/10/31 06:59:55;;;;;;;43.20;39.20;;;12.10;99.90;;;;;;4915465;29;20462;-79
2022/10/31 07:02:43;;;;;;;38.67;35.37;;;12.10;99.90;;;;;;4915611;29;20467;-79
2022/10/31 07:05:12;;;;;;;38.60;34.83;;;12.10;99.90;;;;;;4919072;29;20543;-78
2022/10/31 07:07:41;;;;;;;44.13;39.63;;;12.10;99.90;;;;;;4919421;29;20559;-79
2022/10/31 07:10:10;;;;;;;37.90;34.20;;;12.10;99.90;;;;;;4919936;29;20458;-79
2022/10/31 07:12:55;;;;;;;36.20;33.00;;;12.10;99.90;;;;;;4919259;29;20930;-78
2022/10/31 07:15:26;;;;;;;37.47;34.00;;;12.10;99.90;;;;;;4919033;29;20459;-78
2022/10/31 07:17:59;;;;;;;36.73;33.53;;;12.10;99.90;;;;;;4919385;29;20543;-78
2022/10/31 07:20:28;;;;;;;36.80;33.70;;;12.10;99.90;;;;;;4919230;29;20452;-78
2022/10/31 07:22:57;;;;;;;38.70;34.80;;;12.10;99.90;;;;;;4918891;29;20453;-79
2022/10/31 07:25:26;;;;;;;37.57;34.37;;;12.10;99.90;;;;;;4919452;29;20452;-79
2022/10/31 07:28:15;;;;;;;43.73;32.50;;;12.10;99.90;;;;;;4918853;29;20858;-79
2022/10/31 07:30:52;;;;;;;51.80;34.20;;;12.10;99.90;;;;;;4918787;29;21144;-78
2022/10/31 07:33:21;;;;;;;41.33;34.27;;;12.10;99.90;;;;;;4918666;29;20478;-78
2022/10/31 07:36:08;;;;;;;38.27;31.43;;;12.10;99.90;;;;;;4919957;29;20459;-78
2022/10/31 07:38:43;;;;;;;35.63;31.17;;;12.10;99.90;;;;;;4918804;29;20456;-79
2022/10/31 07:41:11;;;;;;;34.97;31.70;;;12.10;99.90;;;;;;4918498;29;20476;-79
2022/10/31 07:43:43;;;;;;;34.07;31.03;;;12.10;99.90;;;;;;4918850;29;20925;-78
2022/10/31 07:46:20;;;;;;;34.10;30.67;;;12.10;99.90;;;;;;4919854;29;20424;-78
2022/10/31 07:49:11;;;;;;;35.50;31.87;;;12.10;99.90;;;;;;4927515;29;20527;-78
2022/10/31 07:51:58;;;;;;;36.13;32.50;;;12.10;99.90;;;;;;4920140;29;20592;-78
2022/10/31 07:54:45;;;;;;;34.67;31.80;;;12.10;99.90;;;;;;4919625;29;20976;-78
2022/10/31 07:57:13;;;;;;;39.50;36.00;;;12.10;99.90;;;;;;4919860;29;20428;-79
2022/10/31 07:59:43;;;;;;;39.63;35.73;;;12.10;99.90;;;;;;4918306;29;20519;-79
2022/10/31 08:02:13;;;;;;;39.83;35.73;;;12.10;99.90;;;;;;4919744;29;20474;-79
2022/10/31 08:04:47;;;;;;;36.20;33.10;;;12.10;99.90;;;;;;4919963;29;20428;-79
2022/10/31 08:07:28;;;;;;;35.97;32.53;;;12.10;99.90;;;;;;4920035;29;20468;-77
2022/10/31 08:10:02;;;;;;;38.40;34.73;;;12.20;99.90;;;;;;4918529;29;20460;-78
2022/10/31 08:12:32;;;;;;;37.83;34.60;;;12.20;99.90;;;;;;4918262;29;20567;-79
2022/10/31 08:15:01;;;;;;;33.83;31.10;;;12.20;99.90;;;;;;4917504;29;20480;-77
2022/10/31 08:17:31;;;;;;;34.43;31.50;;;12.20;99.90;;;;;;4918349;29;20540;-78
2022/10/31 08:20:02;;;;;;;35.70;32.80;;;12.20;99.90;;;;;;4918200;29;20892;-78
2022/10/31 08:22:37;;;;;;;36.03;32.97;;;12.20;99.90;;;;;;4918080;29;20895;-78
2022/10/31 08:25:10;;;;;;;34.87;31.77;;;12.20;99.90;;;;;;4918060;29;20449;-78
2022/10/31 08:27:39;;;;;;;36.53;33.73;;;12.30;99.90;;;;;;4917866;29;20491;-78
2022/10/31 08:30:17;;;;;;;33.47;30.67;;;12.30;99.90;;;;;;4918368;29;20498;-78
2022/10/31 08:33:06;;;;;;;35.90;32.83;;;12.30;99.90;;;;;;4919337;29;20525;-77
2022/10/31 08:35:52;;;;;;;35.20;32.40;;;12.40;99.90;;;;;;4920642;29;20500;-78
2022/10/31 08:38:53;;;;;;;35.60;32.60;;;12.40;99.90;;;;;;4928929;29;20452;-78
2022/10/31 08:41:29;;;;;;;35.60;32.70;;;12.40;99.90;;;;;;4918355;29;21037;-78
2022/10/31 08:43:59;;;;;;;34.67;31.87;;;12.40;99.90;;;;;;4917684;29;20452;-78
2022/10/31 08:46:27;;;;;;;35.73;33.00;;;12.50;99.90;;;;;;4917797;29;20495;-79
2022/10/31 08:48:56;;;;;;;36.30;33.37;;;12.50;99.90;;;;;;4917793;29;20461;-78
2022/10/31 08:51:25;;;;;;;39.53;36.03;;;12.50;99.90;;;;;;4917373;29;20531;-78
2022/10/31 08:53:55;;;;;;;36.77;33.40;;;12.50;99.90;;;;;;4918284;29;20877;-79
2022/10/31 08:56:42;;;;;;;38.60;35.30;;;12.60;99.90;;;;;;4918981;29;20467;-78
2022/10/31 08:59:24;;;;;;;40.40;36.97;;;12.60;99.90;;;;;;4917801;29;20942;-79
2022/10/31 09:02:21;;;;;;;40.17;36.73;;;12.60;99.90;;;;;;4921950;29;20469;-78
2022/10/31 09:04:54;;;;;;;40.40;37.10;;;12.70;99.90;;;;;;4917521;29;20500;-77
2022/10/31 09:07:22;;;;;;;39.07;35.77;;;12.70;99.90;;;;;;4917436;29;20464;-78
2022/10/31 09:09:50;;;;;;;40.17;36.67;;;12.80;99.90;;;;;;4917431;29;20455;-78
2022/10/31 09:12:20;;;;;;;43.93;40.07;;;12.80;99.90;;;;;;4916998;29;20479;-79
2022/10/31 09:15:07;;;;;;;41.83;38.03;;;12.90;99.90;;;;;;4918606;29;20467;-78
2022/10/31 09:17:58;;;;;;;41.00;37.07;;;12.90;99.90;;;;;;4918250;29;20452;-79
2022/10/31 09:20:43;;;;;;;39.10;35.50;;;12.90;99.90;;;;;;4916813;29;20500;-79
2022/10/31 09:23:13;;;;;;;41.23;37.67;;;12.90;99.90;;;;;;4916982;29;20452;-79
2022/10/31 09:25:42;;;;;;;40.70;36.63;;;12.90;99.90;;;;;;4917223;29;20867;-79
2022/10/31 09:28:39;;;;;;;39.37;35.73;;;12.90;99.90;;;;;;4916813;29;20455;-79
2022/10/31 09:31:13;;;;;;;40.43;36.70;;;13.00;99.90;;;;;;4916464;29;20479;-79
2022/10/31 09:34:04;;;;;;;38.73;35.17;;;13.00;99.90;;;;;;4916670;29;20473;-79
2022/10/31 09:36:40;;;;;;;39.50;35.70;;;13.00;99.90;;;;;;4918553;29;20437;-79
2022/10/31 09:39:12;;;;;;;40.80;37.13;;;13.00;99.90;;;;;;4916634;29;20546;-79
2022/10/31 09:41:59;;;;;;;39.73;36.17;;;13.10;99.90;;;;;;4916395;29;20473;-78
2022/10/31 09:44:40;;;;;;;41.37;37.67;;;13.10;99.90;;;;;;4916509;29;20436;-79
2022/10/31 09:47:22;;;;;;;40.10;36.27;;;13.20;99.90;;;;;;4916863;29;20821;-79
2022/10/31 09:50:18;;;;;;;40.57;36.67;;;13.20;99.90;;;;;;4916604;29;20568;-79
2022/10/31 09:52:55;;;;;;;41.97;37.90;;;13.30;99.90;;;;;;4917066;29;20476;-79
2022/10/31 09:55:31;;;;;;;42.37;38.50;;;13.40;99.90;;;;;;4916144;29;20586;-79
2022/10/31 09:58:01;;;;;;;42.07;38.10;;;13.40;99.90;;;;;;4917305;29;20449;-79
2022/10/31 10:00:31;;;;;;;42.20;38.10;;;13.50;99.90;;;;;;4916411;29;20447;-79
2022/10/31 10:03:12;;;;;;;43.13;39.07;;;13.50;99.90;;;;;;4916708;29;20488;-79
2022/10/31 10:05:47;;;;;;;41.10;37.30;;;13.60;99.90;;;;;;4917238;29;20954;-79
2022/10/31 10:08:31;;;;;;;44.77;40.57;;;13.70;99.90;;;;;;4916767;29;20452;-79
2022/10/31 10:11:25;;;;;;;41.97;38.07;;;13.70;99.90;;;;;;4916621;29;20588;-79
2022/10/31 10:14:16;;;;;;;44.37;40.17;;;13.80;99.90;;;;;;4916630;29;20456;-79
2022/10/31 10:16:59;;;;;;;42.70;38.50;;;13.90;99.90;;;;;;4917819;29;20954;-79
2022/10/31 10:19:49;;;;;;;45.73;41.60;;;13.90;99.90;;;;;;4917427;29;20829;-79
2022/10/31 10:22:27;;;;;;;46.20;41.50;;;14.00;99.90;;;;;;4915687;29;20468;-79
2022/10/31 10:25:10;;;;;;;42.67;38.60;;;14.10;99.90;;;;;;4917038;29;20452;-79
2022/10/31 10:27:51;;;;;;;41.83;37.83;;;14.20;99.90;;;;;;4918654;29;20994;-79
2022/10/31 10:30:21;;;;;;;43.97;39.60;;;14.20;99.90;;;;;;4919366;29;20459;-79
2022/10/31 10:32:52;;;;;;;42.40;38.40;;;14.30;99.90;;;;;;4916947;29;21010;-79
2022/10/31 10:35:24;;;;;;;45.20;40.60;;;14.30;99.90;;;;;;4917359;29;20480;-79
2022/10/31 10:37:56;;;;;;;45.03;40.57;;;14.40;99.90;;;;;;4918547;29;20424;-79
2022/10/31 10:40:28;;;;;;;44.10;39.40;;;14.50;99.90;;;;;;4917734;29;20482;-79
2022/10/31 10:43:20;;;;;;;41.40;37.50;;;14.40;99.90;;;;;;4917688;29;20448;-79
2022/10/31 10:48:48;;;;;;;41.10;37.10;;;14.60;99.90;;;;;;4917036;29;20464;-79
2022/10/31 10:51:23;;;;;;;37.53;34.00;;;14.60;99.90;;;;;;4918584;29;20472;-80
2022/10/31 10:54:27;;;;;;;36.30;32.60;;;14.70;99.90;;;;;;4917926;29;20444;-79
2022/10/31 10:57:07;;;;;;;36.47;32.80;;;14.80;99.90;;;;;;4919383;29;20437;-79
2022/10/31 10:59:36;;;;;;;37.07;33.73;;;14.80;99.90;;;;;;4919676;29;20452;-80
2022/10/31 11:02:04;;;;;;;39.97;35.90;;;14.90;99.90;;;;;;4917999;29;20480;-79
2022/10/31 11:04:35;;;;;;;36.67;32.80;;;15.00;99.90;;;;;;4919595;29;20447;-79
2022/10/31 11:07:06;;;;;;;35.87;32.30;;;15.10;99.90;;;;;;4918000;29;20488;-79
2022/10/31 11:09:35;;;;;;;36.13;32.87;;;15.20;99.90;;;;;;4920158;29;20500;-79
2022/10/31 11:12:10;;;;;;;35.93;32.40;;;15.20;99.90;;;;;;4919029;29;20480;-80
2022/10/31 11:14:46;;;;;;;36.40;32.63;;;15.30;99.90;;;;;;4918208;29;20448;-80
2022/10/31 11:17:23;;;;;;;33.87;29.90;;;15.30;99.90;;;;;;4920282;29;20424;-80
2022/10/31 11:20:02;;;;;;;30.40;27.13;;;15.40;99.90;;;;;;4918270;29;20456;-79
2022/10/31 11:22:30;;;;;;;31.10;27.77;;;15.40;99.90;;;;;;4917598;29;20852;-79
2022/10/31 11:24:58;;;;;;;28.53;25.97;;;15.50;99.90;;;;;;4918806;29;20449;-79
2022/10/31 11:27:28;;;;;;;29.73;26.93;;;15.50;99.90;;;;;;4917769;29;20456;-79
2022/10/31 11:30:06;;;;;;;32.57;29.47;;;15.50;99.90;;;;;;4918568;29;20467;-79
2022/10/31 11:32:34;;;;;;;30.17;27.37;;;15.60;99.90;;;;;;4920191;29;20477;-79
2022/10/31 11:35:10;;;;;;;30.73;27.77;;;15.60;99.90;;;;;;4918662;29;20491;-79
2022/10/31 11:37:44;;;;;;;28.90;26.00;;;15.60;99.90;;;;;;4918270;29;20451;-79
2022/10/31 11:40:18;;;;;;;32.80;29.60;;;15.70;99.90;;;;;;4920140;29;20491;-79
2022/10/31 11:42:50;;;;;;;31.37;28.47;;;15.70;99.90;;;;;;4918630;29;20478;-79
2022/10/31 11:45:30;;;;;;;28.23;25.53;;;15.80;99.90;;;;;;4920112;29;20510;-79
2022/10/31 11:48:01;;;;;;;30.47;27.63;;;15.80;99.90;;;;;;4918198;29;20488;-80
2022/10/31 11:50:36;;;;;;;28.70;25.83;;;15.80;99.90;;;;;;4920234;29;20459;-79
2022/10/31 11:53:05;;;;;;;29.93;27.17;;;15.80;99.90;;;;;;4921637;29;20448;-79
2022/10/31 11:55:35;;;;;;;28.30;25.47;;;15.80;99.90;;;;;;4923076;29;20494;-79
2022/10/31 11:58:05;;;;;;;29.93;27.07;;;15.80;99.90;;;;;;4922356;29;20476;-80
2022/10/31 12:00:37;;;;;;;29.97;27.07;;;15.90;99.90;;;;;;4921828;29;20858;-79
2022/10/31 12:03:14;;;;;;;29.17;26.37;;;15.90;99.90;;;;;;4920914;29;20440;-80
2022/10/31 12:05:45;;;;;;;29.73;26.63;;;15.90;99.90;;;;;;4922470;29;20425;-79
2022/10/31 12:08:14;;;;;;;30.43;27.37;;;16.00;99.90;;;;;;4923155;29;20436;-80
2022/10/31 12:10:52;;;;;;;30.03;26.93;;;16.10;99.90;;;;;;4920068;29;20957;-79
2022/10/31 12:13:34;;;;;;;32.03;28.70;;;16.10;99.90;;;;;;4920513;29;20448;-79
2022/10/31 12:16:09;;;;;;;30.40;27.30;;;16.10;99.90;;;;;;4920430;29;20475;-79
2022/10/31 12:18:48;;;;;;;34.27;30.90;;;16.10;99.90;;;;;;4920557;29;20819;-79
2022/10/31 12:21:30;;;;;;;30.60;27.50;;;16.20;99.90;;;;;;4920840;29;20822;-80
2022/10/31 12:24:09;;;;;;;30.43;27.50;;;16.20;99.90;;;;;;4921156;29;20475;-80
2022/10/31 12:26:48;;;;;;;29.63;26.57;;;16.20;99.90;;;;;;4921651;29;20876;-79
2022/10/31 12:29:34;;;;;;;28.23;25.40;;;16.20;99.90;;;;;;4921736;29;20872;-80
2022/10/31 12:32:20;;;;;;;31.03;28.10;;;16.20;99.90;;;;;;4921726;29;20472;-80
2022/10/31 12:35:19;;;;;;;32.17;28.77;;;16.20;99.90;;;;;;4922257;29;20478;-80
2022/10/31 12:38:01;;;;;;;35.33;31.83;;;16.20;99.90;;;;;;4921777;29;20526;-79
2022/10/31 12:40:46;;;;;;;33.00;29.70;;;16.20;99.90;;;;;;4921707;29;20496;-80
2022/10/31 12:43:30;;;;;;;37.03;33.47;;;16.20;99.90;;;;;;4921954;29;20968;-80
2022/10/31 12:46:02;;;;;;;34.57;31.23;;;16.20;99.90;;;;;;4923951;29;20432;-80
2022/10/31 12:48:53;;;;;;;35.47;32.03;;;16.30;99.90;;;;;;4922810;29;20484;-80
2022/10/31 12:51:33;;;;;;;36.77;33.20;;;16.30;99.90;;;;;;4924069;29;20476;-80
2022/10/31 12:54:21;;;;;;;36.17;32.60;;;16.30;99.90;;;;;;4922682;29;20887;-80
2022/10/31 12:56:59;;;;;;;39.27;35.27;;;16.30;99.90;;;;;;4923334;29;20479;-80
2022/10/31 12:59:33;;;;;;;38.53;34.47;;;16.30;99.90;;;;;;4922200;29;20423;-80
2022/10/31 13:02:15;;;;;;;38.20;34.53;;;16.30;99.90;;;;;;4923720;29;20486;-79
2022/10/31 13:04:49;;;;;;;38.13;34.57;;;16.30;99.90;;;;;;4923934;29;20779;-80
2022/10/31 13:07:22;;;;;;;38.10;34.60;;;16.30;99.90;;;;;;4923915;29;20883;-80
2022/10/31 13:09:55;;;;;;;40.90;37.00;;;16.30;99.90;;;;;;4923106;29;20437;-79
2022/10/31 13:12:25;;;;;;;38.73;34.87;;;16.30;99.90;;;;;;4926912;29;20484;-80